Time;durP1;ratioP1;P1;durP2;ratioP2;P2;SDS_P1;SDS_P2;PMS_P1;PMS_P2;Temp;Humidity;BMP_temperature;BMP_pressure;BME280_temperature;BME280_humidity;BME280_pressure;Samples;Min_cycle;Max_cycle;Signal;HPM_P1;HPM_P2
2022/07/28 00:01:17;;;;;;;5.30;1.70;;;;;;;16.51;53.92;100580.31;103287;1276;96969;-69
2022/07/28 00:03:47;;;;;;;6.50;1.90;;;;;;;16.43;54.11;100577.86;103215;1276;138238;-68
2022/07/28 00:06:16;;;;;;;6.10;1.90;;;;;;;16.36;54.31;100578.55;107603;1275;109895;-69
2022/07/28 00:08:44;;;;;;;6.00;2.20;;;;;;;16.32;54.29;100577.10;105317;1276;138411;-69
2022/07/28 00:11:13;;;;;;;7.70;2.20;;;;;;;16.29;54.34;100573.33;103239;1276;107103;-69
2022/07/28 00:13:41;;;;;;;6.90;2.10;;;;;;;16.27;54.46;100575.02;106439;1276;95868;-69
2022/07/28 00:16:09;;;;;;;6.90;1.90;;;;;;;16.28;54.40;100579.81;103142;1276;139029;-69
2022/07/28 00:18:38;;;;;;;7.40;2.10;;;;;;;16.26;54.49;100586.35;106815;1274;109699;-69
2022/07/28 00:21:06;;;;;;;7.80;2.50;;;;;;;16.23;54.50;100589.89;104216;1276;138455;-68
2022/07/28 00:23:34;;;;;;;6.40;2.20;;;;;;;16.18;54.60;100591.72;103386;1276;109341;-69
2022/07/28 00:26:07;;;;;;;4.80;1.70;;;;;;;16.12;54.79;100592.16;103412;1276;95660;-69
2022/07/28 00:28:35;;;;;;;7.90;1.80;;;;;;;16.12;54.90;100592.03;103576;1277;138484;-69
2022/07/28 00:31:05;;;;;;;5.70;1.80;;;;;;;16.11;54.92;100591.13;103432;1276;109928;-69
2022/07/28 00:33:39;;;;;;;9.00;2.20;;;;;;;16.09;55.15;100588.04;103385;1276;138301;-69
2022/07/28 00:36:08;;;;;;;6.40;2.10;;;;;;;16.03;55.24;100591.34;103607;1276;108933;-69
2022/07/28 00:38:39;;;;;;;6.30;2.00;;;;;;;16.00;55.29;100592.89;103459;1276;138904;-69
2022/07/28 00:41:11;;;;;;;7.50;2.00;;;;;;;16.00;55.23;100600.41;105800;1276;95253;-69
2022/07/28 00:43:45;;;;;;;6.50;2.10;;;;;;;16.00;55.25;100593.98;103604;1276;108775;-68
2022/07/28 00:46:16;;;;;;;7.20;2.30;;;;;;;15.99;55.41;100592.04;103745;1276;138418;-68
2022/07/28 00:48:48;;;;;;;5.70;1.90;;;;;;;15.98;55.55;100596.77;103581;1277;245645;-68
2022/07/28 00:51:20;;;;;;;7.30;2.10;;;;;;;15.92;55.80;100597.75;103498;1276;139100;-69
2022/07/28 00:53:48;;;;;;;7.20;2.10;;;;;;;15.91;55.96;100594.79;103606;1276;95326;-70
2022/07/28 00:56:18;;;;;;;6.10;2.10;;;;;;;15.93;55.88;100602.92;103482;1276;109774;-68
2022/07/28 00:58:47;;;;;;;6.90;2.30;;;;;;;15.94;55.92;100601.77;103507;1276;138792;-69
2022/07/28 01:01:18;;;;;;;7.70;2.50;;;;;;;15.92;55.89;100603.50;103710;1277;108846;-70
2022/07/28 01:03:53;;;;;;;8.80;2.60;;;;;;;15.92;55.85;100602.26;103890;1276;138354;-69
2022/07/28 01:06:33;;;;;;;7.60;2.40;;;;;;;15.88;56.04;100601.69;104142;1276;96996;-68
2022/07/28 01:09:27;;;;;;;6.70;2.30;;;;;;;15.84;56.11;100601.31;104234;1276;138808;-68
2022/07/28 01:12:21;;;;;;;7.10;2.20;;;;;;;15.81;56.33;100603.24;103280;1276;99418;-69
2022/07/28 01:15:48;;;;;;;5.50;2.30;;;;;;;15.75;56.90;100602.22;103174;1276;138639;-69
2022/07/28 01:18:24;;;;;;;6.20;2.20;;;;;;;15.63;57.63;100605.83;103249;1276;96039;-69
2022/07/28 01:21:04;;;;;;;5.60;2.20;;;;;;;15.54;58.17;100607.45;103229;1276;139690;-69
2022/07/28 01:23:31;;;;;;;7.60;2.30;;;;;;;15.50;58.34;100606.73;103497;1276;110091;-69
2022/07/28 01:26:24;;;;;;;5.80;2.20;;;;;;;15.37;58.73;100612.48;103674;1274;99393;-70
2022/07/28 01:28:58;;;;;;;7.50;2.10;;;;;;;15.16;59.38;100608.33;103403;1277;138771;-69
2022/07/28 01:31:32;;;;;;;9.60;2.50;;;;;;;15.06;59.62;100607.00;103841;1276;95602;-69
2022/07/28 01:34:07;;;;;;;6.10;2.10;;;;;;;14.95;60.09;100609.61;103793;1276;138104;-69
2022/07/28 01:36:42;;;;;;;7.90;2.60;;;;;;;14.84;60.47;100608.42;103675;1276;109798;-70
2022/07/28 01:39:12;;;;;;;6.80;2.20;;;;;;;14.72;60.84;100604.63;104244;1276;139654;-70
2022/07/28 01:41:43;;;;;;;5.80;2.00;;;;;;;14.61;61.23;100601.63;104118;1276;109019;-70
2022/07/28 01:44:19;;;;;;;6.30;2.10;;;;;;;14.58;61.59;100598.36;104206;1276;95586;-70
2022/07/28 01:46:50;;;;;;;7.30;2.50;;;;;;;14.54;61.70;100600.11;104080;1276;137719;-70
2022/07/28 01:49:20;;;;;;;5.90;2.30;;;;;;;14.53;61.62;100601.73;104430;1276;108325;-71
2022/07/28 01:51:50;;;;;;;5.90;2.00;;;;;;;14.55;61.81;100604.34;104095;1277;138290;-69
2022/07/28 01:54:20;;;;;;;7.10;2.30;;;;;;;14.55;61.92;100602.55;104142;1276;109057;-69
2022/07/28 01:56:52;;;;;;;6.80;2.70;;;;;;;14.58;62.21;100603.52;104120;1274;140750;-69
2022/07/28 01:59:22;;;;;;;7.00;2.20;;;;;;;14.59;62.25;100606.00;104203;1276;95225;-70
2022/07/28 02:01:51;;;;;;;6.90;2.60;;;;;;;14.56;62.36;100606.30;104289;1276;109824;-70
2022/07/28 02:04:22;;;;;;;7.80;2.60;;;;;;;14.52;62.61;100607.16;104041;1276;138462;-70
2022/07/28 02:06:53;;;;;;;6.40;2.70;;;;;;;14.43;62.70;100609.14;104290;1276;108836;-70
2022/07/28 02:09:22;;;;;;;6.20;2.30;;;;;;;14.41;62.82;100608.48;104310;1277;139162;-68
2022/07/28 02:11:53;;;;;;;7.00;2.60;;;;;;;14.35;62.67;100607.83;103423;1276;95824;-69
2022/07/28 02:14:23;;;;;;;6.20;2.40;;;;;;;14.31;62.79;100608.68;107504;1276;109918;-69
2022/07/28 02:17:10;;;;;;;6.60;2.50;;;;;;;14.23;62.99;100607.75;105704;1276;138260;-69
2022/07/28 02:19:41;;;;;;;7.80;2.70;;;;;;;14.17;63.21;100606.92;104091;1276;109130;-69
2022/07/28 02:22:10;;;;;;;6.00;2.80;;;;;;;14.17;63.29;100608.33;103659;1275;139563;-69
2022/07/28 02:24:40;;;;;;;6.00;2.70;;;;;;;14.21;63.26;100611.38;103641;1276;95226;-69
2022/07/28 02:27:21;;;;;;;7.00;2.60;;;;;;;14.24;63.15;100613.27;106182;1276;138581;-70
2022/07/28 02:30:04;;;;;;;7.20;2.90;;;;;;;14.23;63.50;100613.83;103617;1276;99548;-70
2022/07/28 02:32:52;;;;;;;7.40;2.40;;;;;;;14.15;63.58;100610.37;104201;1276;139124;-70
2022/07/28 02:35:31;;;;;;;6.30;2.60;;;;;;;14.11;63.70;100611.05;104271;1274;95176;-70
2022/07/28 02:38:10;;;;;;;6.10;2.70;;;;;;;14.06;63.86;100614.80;104286;1276;95239;-69
2022/07/28 02:40:41;;;;;;;7.50;3.10;;;;;;;14.01;63.85;100613.55;104191;1276;138798;-69
2022/07/28 02:43:14;;;;;;;7.50;2.60;;;;;;;13.98;64.20;100612.59;104381;1276;99440;-70
2022/07/28 02:45:48;;;;;;;8.20;2.80;;;;;;;13.97;64.36;100607.64;104968;1277;138813;-69
2022/07/28 02:48:20;;;;;;;7.50;3.10;;;;;;;13.97;64.32;100614.10;104623;1276;95801;-69
2022/07/28 02:50:50;;;;;;;9.60;3.20;;;;;;;14.00;64.47;100615.73;104193;1278;138926;-69
2022/07/28 02:53:21;;;;;;;7.70;3.10;;;;;;;14.03;64.42;100619.58;103731;1276;109251;-70
2022/07/28 02:55:51;;;;;;;7.00;2.50;;;;;;;13.97;64.34;100618.18;104395;1275;99452;-68
2022/07/28 02:58:22;;;;;;;7.50;2.80;;;;;;;13.96;64.56;100625.70;103347;1274;139085;-69
2022/07/28 03:00:51;;;;;;;6.40;3.00;;;;;;;13.97;64.72;100626.04;103814;1275;95249;-69
2022/07/28 03:03:21;;;;;;;7.60;3.00;;;;;;;13.99;64.55;100630.58;103661;1277;138705;-69
2022/07/28 03:05:50;;;;;;;7.90;3.10;;;;;;;13.98;64.54;100629.19;103789;1277;109743;-70
2022/07/28 03:08:18;;;;;;;7.50;2.50;;;;;;;13.95;64.96;100628.60;103758;1276;99388;-70
2022/07/28 03:10:46;;;;;;;7.30;3.00;;;;;;;13.99;64.72;100630.77;103398;1276;138622;-69
2022/07/28 03:13:14;;;;;;;7.00;2.90;;;;;;;14.02;64.41;100634.07;103466;1276;95248;-70
2022/07/28 03:15:42;;;;;;;7.60;3.00;;;;;;;14.04;64.22;100635.57;103810;1276;138112;-69
2022/07/28 03:18:10;;;;;;;6.50;3.10;;;;;;;14.01;64.59;100639.77;104237;1276;109776;-69
2022/07/28 03:20:39;;;;;;;7.40;2.60;;;;;;;13.97;64.90;100640.13;104236;1276;140017;-68
2022/07/28 03:23:08;;;;;;;6.60;3.00;;;;;;;13.97;65.24;100639.95;103621;1277;108845;-69
2022/07/28 03:25:45;;;;;;;7.40;3.30;;;;;;;13.96;65.49;100643.55;103581;1276;95703;-69
2022/07/28 03:28:19;;;;;;;6.70;2.90;;;;;;;13.85;65.54;100643.42;103583;1277;138530;-70
2022/07/28 03:30:53;;;;;;;7.20;3.10;;;;;;;13.73;66.11;100648.84;104304;1276;109795;-69
2022/07/28 03:33:21;;;;;;;6.20;2.80;;;;;;;13.75;66.50;100651.11;104189;1277;139450;-69
2022/07/28 03:35:52;;;;;;;7.30;3.40;;;;;;;13.80;66.69;100653.95;104127;1277;109736;-69
2022/07/28 03:38:24;;;;;;;7.60;3.40;;;;;;;13.77;66.77;100654.23;104244;1275;95858;-69
2022/07/28 03:40:55;;;;;;;7.30;3.10;;;;;;;13.74;67.09;100658.61;104202;1275;138005;-69
2022/07/28 03:43:25;;;;;;;7.70;3.30;;;;;;;13.77;67.22;100661.73;103596;1276;108550;-71
2022/07/28 03:45:53;;;;;;;7.60;2.90;;;;;;;13.87;67.24;100662.98;104879;1275;139454;-69
2022/07/28 03:48:27;;;;;;;8.00;3.20;;;;;;;13.97;66.86;100659.77;104258;1276;108745;-69
2022/07/28 03:50:56;;;;;;;8.40;3.40;;;;;;;14.09;66.57;100662.73;104255;1276;138481;-70
2022/07/28 03:53:27;;;;;;;7.60;3.50;;;;;;;14.16;66.52;100666.57;104531;1276;95284;-70
2022/07/28 03:55:55;;;;;;;8.80;3.80;;;;;;;14.19;66.53;100668.05;104361;1276;112479;-70
2022/07/28 03:58:26;;;;;;;7.80;3.70;;;;;;;14.29;66.70;100669.30;104119;1274;138922;-70
2022/07/28 04:00:57;;;;;;;8.80;3.80;;;;;;;14.38;66.35;100672.20;104330;1276;108705;-69
2022/07/28 04:03:26;;;;;;;8.90;3.90;;;;;;;14.43;66.43;100676.29;104288;1276;138509;-69
2022/07/28 04:06:12;;;;;;;8.00;3.80;;;;;;;14.48;66.31;100677.02;104255;1276;95237;-69
2022/07/28 04:08:40;;;;;;;8.60;4.10;;;;;;;14.50;65.72;100678.34;104170;1276;139066;-70
2022/07/28 04:11:08;;;;;;;9.00;4.20;;;;;;;14.59;65.23;100682.66;104345;1276;99409;-70
2022/07/28 04:13:36;;;;;;;8.70;4.60;;;;;;;14.73;64.58;100682.86;104325;1276;108838;-70
2022/07/28 04:16:05;;;;;;;9.40;4.90;;;;;;;14.83;64.19;100683.53;104162;1275;138865;-69
2022/07/28 04:18:34;;;;;;;9.10;4.30;;;;;;;14.91;63.78;100686.98;104761;1276;95154;-70
2022/07/28 04:21:03;;;;;;;10.00;4.60;;;;;;;14.95;63.52;100687.55;104036;1276;139017;-68
2022/07/28 04:23:32;;;;;;;8.70;4.20;;;;;;;14.99;63.19;100687.55;103608;1276;98913;-69
2022/07/28 04:26:00;;;;;;;9.20;4.40;;;;;;;15.05;63.30;100689.08;103813;1276;109404;-69
2022/07/28 04:28:28;;;;;;;11.20;4.90;;;;;;;15.07;63.33;100689.54;103450;1276;138803;-68
2022/07/28 04:30:56;;;;;;;9.10;4.40;;;;;;;15.09;63.32;100693.42;104089;1276;95192;-69
2022/07/28 04:33:24;;;;;;;9.30;4.20;;;;;;;15.02;63.57;100696.90;103452;1276;138506;-69
2022/07/28 04:35:52;;;;;;;9.80;4.70;;;;;;;15.08;63.70;100699.16;103709;1278;99484;-69
2022/07/28 04:38:20;;;;;;;9.00;4.50;;;;;;;15.18;63.27;100698.98;103555;1277;108840;-69
2022/07/28 04:40:49;;;;;;;9.50;4.60;;;;;;;15.25;62.47;100696.88;103534;1276;138152;-67
2022/07/28 04:43:17;;;;;;;10.70;5.00;;;;;;;15.32;62.00;100700.55;103652;1276;95218;-70
2022/07/28 04:45:45;;;;;;;9.60;4.70;;;;;;;15.34;61.96;100695.80;103532;1276;138465;-69
2022/07/28 04:48:22;;;;;;;9.90;4.30;;;;;;;15.37;62.71;100693.15;103608;1276;99539;-70
2022/07/28 04:50:51;;;;;;;9.20;4.50;;;;;;;15.47;62.35;100694.00;103607;1276;139062;-70
2022/07/28 04:53:21;;;;;;;9.60;4.20;;;;;;;15.48;61.87;100690.77;103853;1276;96173;-70
2022/07/28 04:55:51;;;;;;;9.50;4.70;;;;;;;15.57;61.97;100689.13;103756;1276;95325;-69
2022/07/28 04:58:22;;;;;;;10.10;4.50;;;;;;;15.65;61.92;100688.80;103570;1276;138096;-69
2022/07/28 05:00:50;;;;;;;10.50;4.80;;;;;;;15.76;61.45;100692.45;103822;1276;97780;-69
2022/07/28 05:03:19;;;;;;;9.00;4.10;;;;;;;15.83;61.21;100689.64;103464;1276;138757;-68
2022/07/28 05:05:48;;;;;;;11.30;4.40;;;;;;;15.92;60.97;100691.23;103693;1276;95243;-71
2022/07/28 05:08:23;;;;;;;8.80;4.40;;;;;;;15.95;60.79;100695.40;103616;1276;95224;-69
2022/07/28 05:10:54;;;;;;;29.30;20.70;;;;;;;15.99;60.83;100699.16;103894;1276;137912;-69
2022/07/28 05:13:23;;;;;;;22.30;12.80;;;;;;;16.08;61.24;100698.25;103750;1276;97788;-70
2022/07/28 05:15:58;;;;;;;10.70;4.90;;;;;;;16.18;60.68;100693.14;103487;1276;138941;-69
2022/07/28 05:18:26;;;;;;;12.20;4.80;;;;;;;16.24;60.57;100694.48;103688;1277;95333;-70
2022/07/28 05:20:54;;;;;;;9.60;4.80;;;;;;;16.19;60.49;100694.85;103557;1276;140419;-70
2022/07/28 05:23:22;;;;;;;10.30;3.90;;;;;;;16.26;60.27;100697.63;103694;1276;109599;-70
2022/07/28 05:25:50;;;;;;;10.50;4.50;;;;;;;16.35;59.82;100698.27;103563;1276;99468;-69
2022/07/28 05:28:19;;;;;;;9.10;4.40;;;;;;;16.45;59.91;100702.13;103552;1275;138985;-69
2022/07/28 05:30:47;;;;;;;10.40;4.40;;;;;;;16.58;60.24;100704.38;103609;1276;95564;-69
2022/07/28 05:33:15;;;;;;;9.80;4.30;;;;;;;16.67;60.49;100706.51;103611;1276;138479;-69
2022/07/28 05:35:51;;;;;;;10.90;4.20;;;;;;;16.69;60.24;100703.52;103916;1276;109885;-69
2022/07/28 05:38:20;;;;;;;8.90;3.90;;;;;;;16.82;59.52;100703.48;103736;1276;99450;-69
2022/07/28 05:40:49;;;;;;;9.50;4.20;;;;;;;16.93;59.33;100704.40;103775;1276;137949;-69
2022/07/28 05:43:19;;;;;;;10.20;4.10;;;;;;;17.04;59.16;100703.70;103762;1277;96541;-70
2022/07/28 05:45:48;;;;;;;10.10;4.30;;;;;;;17.15;59.19;100706.23;103973;1275;138478;-71
2022/07/28 05:48:20;;;;;;;9.20;3.50;;;;;;;17.21;58.68;100708.10;104238;1277;109957;-70
2022/07/28 05:50:49;;;;;;;7.60;3.60;;;;;;;17.29;58.52;100711.45;104062;1276;138461;-70
2022/07/28 05:53:18;;;;;;;10.70;3.10;;;;;;;17.33;58.65;100716.63;104152;1276;108862;-69
2022/07/28 05:55:46;;;;;;;7.90;3.50;;;;;;;17.42;58.01;100716.20;104210;1277;95214;-69
2022/07/28 05:58:29;;;;;;;8.10;3.20;;;;;;;17.50;58.01;100719.77;103385;1277;138763;-70
2022/07/28 06:01:02;;;;;;;7.90;2.60;;;;;;;17.54;57.45;100719.34;103695;1277;109829;-70
2022/07/28 06:03:31;;;;;;;7.60;2.90;;;;;;;17.63;57.23;100722.32;104114;1277;138753;-70
2022/07/28 06:06:04;;;;;;;8.60;3.40;;;;;;;17.70;56.93;100723.04;104121;1277;108845;-69
2022/07/28 06:08:45;;;;;;;9.40;3.00;;;;;;;17.76;55.73;100721.14;103986;1277;138450;-70
2022/07/28 06:11:15;;;;;;;9.50;3.10;;;;;;;17.78;55.74;100723.73;104221;1276;95053;-69
2022/07/28 06:13:51;;;;;;;7.90;2.70;;;;;;;17.84;55.09;100722.35;104140;1276;109443;-70
2022/07/28 06:16:21;;;;;;;7.00;2.20;;;;;;;17.86;54.93;100722.23;104077;1276;138372;-70
2022/07/28 06:18:50;;;;;;;7.40;2.50;;;;;;;17.90;55.26;100724.55;104111;1276;109157;-70
2022/07/28 06:21:21;;;;;;;7.80;1.90;;;;;;;17.92;53.63;100726.98;104067;1276;138381;-69
2022/07/28 06:23:49;;;;;;;6.60;2.30;;;;;;;17.96;52.76;100727.88;104389;1276;96636;-70
2022/07/28 06:26:19;;;;;;;7.40;2.20;;;;;;;18.00;51.99;100729.11;103391;1276;109732;-69
2022/07/28 06:28:47;;;;;;;6.70;1.90;;;;;;;18.06;51.77;100730.23;103594;1276;139261;-69
2022/07/28 06:31:15;;;;;;;6.50;2.00;;;;;;;18.14;51.56;100730.15;103635;1276;108749;-69
2022/07/28 06:33:43;;;;;;;7.70;2.00;;;;;;;18.20;51.42;100729.85;103587;1277;138644;-69
2022/07/28 06:36:11;;;;;;;6.50;1.80;;;;;;;18.26;50.97;100732.96;103680;1276;95227;-69
2022/07/28 06:38:39;;;;;;;6.70;1.80;;;;;;;18.30;50.63;100732.17;103567;1276;138346;-69
2022/07/28 06:41:07;;;;;;;5.60;1.40;;;;;;;18.35;49.07;100729.61;103573;1276;99409;-69
2022/07/28 06:43:35;;;;;;;5.60;1.50;;;;;;;18.42;49.19;100727.98;103670;1277;108922;-69
2022/07/28 06:46:06;;;;;;;7.20;2.00;;;;;;;18.49;49.57;100728.86;103701;1275;138386;-70
2022/07/28 06:48:38;;;;;;;6.00;1.70;;;;;;;18.54;49.34;100733.60;103908;1276;95842;-70
2022/07/28 06:51:06;;;;;;;6.20;1.50;;;;;;;18.61;49.31;100734.87;103915;1276;138382;-68
2022/07/28 06:53:34;;;;;;;5.70;1.50;;;;;;;18.67;49.46;100737.56;103698;1277;99461;-69
2022/07/28 06:56:04;;;;;;;5.50;1.30;;;;;;;18.77;49.57;100738.14;103732;1277;108780;-70
2022/07/28 06:58:32;;;;;;;5.20;1.30;;;;;;;18.83;48.82;100739.39;103786;1276;138258;-69
2022/07/28 07:01:05;;;;;;;5.70;1.40;;;;;;;18.86;47.91;100743.20;103699;1276;95655;-70
2022/07/28 07:03:34;;;;;;;5.10;1.40;;;;;;;18.89;47.97;100744.67;104058;1276;138775;-69
2022/07/28 07:06:03;;;;;;;5.40;1.30;;;;;;;18.97;48.05;100739.77;103639;1276;99333;-69
2022/07/28 07:08:32;;;;;;;7.10;1.50;;;;;;;19.02;47.90;100740.73;103685;1276;108812;-69
2022/07/28 07:11:00;;;;;;;7.50;1.60;;;;;;;19.08;47.82;100737.33;103950;1276;95822;-69
2022/07/28 07:13:28;;;;;;;6.20;1.40;;;;;;;19.15;47.83;100737.81;103449;1276;95688;-69
2022/07/28 07:15:56;;;;;;;6.70;1.60;;;;;;;19.19;47.58;100737.42;101778;1276;139158;-70
2022/07/28 07:18:25;;;;;;;5.50;1.80;;;;;;;19.24;47.44;100741.14;104306;1276;99368;-69
2022/07/28 07:20:56;;;;;;;6.50;1.50;;;;;;;19.29;47.95;100744.97;103232;1277;138448;-69
2022/07/28 07:23:24;;;;;;;8.30;1.90;;;;;;;19.33;47.58;100746.55;103487;1276;95559;-68
2022/07/28 07:25:52;;;;;;;6.20;1.80;;;;;;;19.40;47.52;100748.13;103424;1277;95255;-69
2022/07/28 07:28:20;;;;;;;7.00;2.00;;;;;;;19.48;47.86;100747.11;103184;1276;138161;-69
2022/07/28 07:30:48;;;;;;;7.00;1.80;;;;;;;19.56;47.95;100746.30;103328;1277;100001;-69
2022/07/28 07:33:16;;;;;;;6.80;1.70;;;;;;;19.62;47.46;100746.33;103305;1277;138509;-69
2022/07/28 07:35:44;;;;;;;5.00;1.50;;;;;;;19.65;47.51;100746.98;103388;1275;96655;-69
2022/07/28 07:38:12;;;;;;;6.20;1.70;;;;;;;19.70;46.92;100748.20;103335;1276;95449;-70
2022/07/28 07:40:40;;;;;;;5.20;1.30;;;;;;;19.72;47.12;100748.96;103149;1277;138202;-70
2022/07/28 07:43:08;;;;;;;6.00;1.60;;;;;;;19.81;47.33;100746.30;103331;1276;99413;-70
2022/07/28 07:45:36;;;;;;;7.30;1.80;;;;;;;19.84;47.21;100747.52;103134;1276;138644;-69
2022/07/28 07:48:04;;;;;;;5.60;1.70;;;;;;;19.87;46.67;100745.73;103627;1277;95248;-68
2022/07/28 07:50:33;;;;;;;6.90;1.40;;;;;;;19.91;46.25;100740.70;103273;1277;138188;-68
2022/07/28 07:53:02;;;;;;;6.50;1.80;;;;;;;19.97;46.75;100746.28;104126;1276;110722;-68
2022/07/28 07:55:30;;;;;;;5.90;1.40;;;;;;;20.07;46.60;100744.03;103442;1276;99397;-69
2022/07/28 07:58:04;;;;;;;5.70;1.70;;;;;;;20.11;45.84;100747.39;103240;1276;138241;-70
2022/07/28 08:00:33;;;;;;;6.40;1.90;;;;;;;20.22;45.42;100749.41;103597;1276;95209;-69
2022/07/28 08:03:01;;;;;;;5.80;1.50;;;;;;;20.33;45.10;100752.16;103204;1276;138237;-68
2022/07/28 08:05:29;;;;;;;6.10;1.50;;;;;;;20.39;45.31;100751.31;103326;1277;109371;-68
2022/07/28 08:08:04;;;;;;;5.40;1.50;;;;;;;20.42;45.33;100756.68;103409;1276;99828;-69
2022/07/28 08:10:36;;;;;;;6.90;1.40;;;;;;;20.54;45.85;100754.54;103317;1277;138360;-69
2022/07/28 08:13:06;;;;;;;5.60;1.40;;;;;;;20.69;45.69;100752.84;103420;1276;95460;-69
2022/07/28 08:15:34;;;;;;;6.00;1.70;;;;;;;20.82;44.70;100753.30;103262;1276;138116;-68
2022/07/28 08:18:03;;;;;;;7.00;1.70;;;;;;;20.96;44.96;100751.73;103125;1277;109248;-69
2022/07/28 08:20:31;;;;;;;5.80;1.70;;;;;;;21.09;45.00;100754.47;103857;1277;99905;-69
2022/07/28 08:22:59;;;;;;;6.30;1.90;;;;;;;21.20;44.25;100751.94;103433;1276;108860;-70
2022/07/28 08:25:27;;;;;;;5.40;1.80;;;;;;;21.29;43.58;100752.11;104185;1275;95587;-68
2022/07/28 08:27:55;;;;;;;6.50;1.90;;;;;;;21.30;43.58;100750.05;103329;1277;138929;-68
2022/07/28 08:30:24;;;;;;;7.50;1.80;;;;;;;21.33;43.69;100752.38;103243;1277;109668;-69
2022/07/28 08:32:59;;;;;;;6.60;1.50;;;;;;;21.36;43.27;100754.52;104369;1277;138625;-69
2022/07/28 08:35:28;;;;;;;6.30;1.50;;;;;;;21.40;42.85;100755.92;103237;1276;108888;-70
2022/07/28 08:38:05;;;;;;;5.20;1.50;;;;;;;21.46;43.03;100754.79;103293;1277;95674;-68
2022/07/28 08:40:37;;;;;;;6.40;1.90;;;;;;;21.51;42.92;100756.29;103627;1277;138243;-69
2022/07/28 08:43:22;;;;;;;5.50;1.30;;;;;;;21.63;42.75;100756.80;103306;1276;109607;-68
2022/07/28 08:45:51;;;;;;;5.80;1.60;;;;;;;21.67;41.88;100756.11;103344;1277;139104;-68
2022/07/28 08:48:28;;;;;;;5.30;1.50;;;;;;;21.75;41.97;100756.69;103333;1277;109005;-68
2022/07/28 08:51:02;;;;;;;5.50;1.50;;;;;;;21.85;42.21;100752.92;103326;1276;138523;-69
2022/07/28 08:53:33;;;;;;;6.80;1.70;;;;;;;22.00;42.09;100750.65;103374;1276;95220;-70
2022/07/28 08:56:04;;;;;;;5.00;1.40;;;;;;;22.08;41.48;100754.82;103291;1276;109853;-68
2022/07/28 08:58:34;;;;;;;5.50;1.30;;;;;;;22.10;40.94;100753.20;103420;1277;138948;-68
2022/07/28 09:01:03;;;;;;;6.30;1.90;;;;;;;22.23;40.82;100749.63;103750;1274;108789;-69
2022/07/28 09:03:31;;;;;;;6.00;1.40;;;;;;;22.39;41.47;100760.12;103273;1277;138451;-69
2022/07/28 09:06:00;;;;;;;4.70;1.40;;;;;;;22.61;41.29;100758.20;103425;1277;95173;-68
2022/07/28 09:08:28;;;;;;;5.90;1.70;;;;;;;22.75;40.77;100752.48;103472;1275;110242;-68
2022/07/28 09:10:55;;;;;;;5.30;1.40;;;;;;;22.92;40.80;100751.09;103493;1277;138411;-68
2022/07/28 09:13:23;;;;;;;6.40;1.40;;;;;;;23.07;40.17;100757.23;103602;1277;108958;-68
2022/07/28 09:15:52;;;;;;;6.90;1.40;;;;;;;23.18;39.62;100755.02;103242;1277;138447;-68
2022/07/28 09:18:21;;;;;;;5.50;1.40;;;;;;;23.30;39.73;100758.48;103424;1276;95811;-67
2022/07/28 09:20:50;;;;;;;5.60;1.50;;;;;;;23.53;39.47;100758.08;104796;1276;138875;-71
2022/07/28 09:23:18;;;;;;;6.20;1.50;;;;;;;23.68;38.74;100755.61;104259;1276;99144;-70
2022/07/28 09:26:08;;;;;;;7.20;1.40;;;;;;;23.77;39.06;100755.73;104347;1276;109470;-69
2022/07/28 09:28:57;;;;;;;5.00;1.20;;;;;;;23.98;39.88;100760.45;104260;1275;138326;-69
2022/07/28 09:31:27;;;;;;;4.70;1.20;;;;;;;24.27;38.34;100757.67;104318;1275;95264;-70
2022/07/28 09:33:57;;;;;;;4.90;1.10;;;;;;;24.50;37.08;100753.55;104283;1277;138313;-70
2022/07/28 09:36:26;;;;;;;5.30;1.20;;;;;;;25.17;35.24;100753.44;104284;1277;99852;-71
2022/07/28 09:38:55;;;;;;;5.50;1.20;;;;;;;26.50;34.21;100754.21;104135;1277;139234;-72
2022/07/28 09:41:23;;;;;;;5.10;1.30;;;;;;;27.91;32.24;100753.17;104306;1276;95028;-72
2022/07/28 09:43:52;;;;;;;5.20;1.20;;;;;;;29.12;29.97;100747.87;104355;1276;96101;-72
2022/07/28 09:46:24;;;;;;;4.90;1.10;;;;;;;30.04;27.87;100745.95;104219;1277;138344;-71
2022/07/28 09:48:57;;;;;;;4.40;1.00;;;;;;;30.96;28.13;100747.15;104237;1277;97886;-72
2022/07/28 09:51:26;;;;;;;4.20;1.10;;;;;;;32.03;26.08;100752.59;104281;1277;138437;-70
2022/07/28 09:54:16;;;;;;;4.80;1.00;;;;;;;32.77;25.10;100750.05;104301;1277;95580;-73
2022/07/28 09:56:45;;;;;;;4.00;1.30;;;;;;;33.64;24.83;100747.09;104362;1277;139017;-72
2022/07/28 09:59:13;;;;;;;5.70;1.10;;;;;;;34.59;23.72;100754.71;104261;1277;109979;-72
2022/07/28 10:01:58;;;;;;;4.60;1.10;;;;;;;35.20;22.11;100753.23;104254;1277;98835;-72
2022/07/28 10:04:41;;;;;;;4.30;1.00;;;;;;;35.73;21.35;100749.58;104395;1277;138657;-72
2022/07/28 10:07:15;;;;;;;4.00;1.00;;;;;;;36.13;19.66;100753.23;104268;1277;95245;-72
2022/07/28 10:09:59;;;;;;;5.20;0.80;;;;;;;36.29;20.45;100757.91;104287;1277;138163;-72
2022/07/28 10:12:30;;;;;;;3.60;0.80;;;;;;;36.59;19.17;100752.90;104353;1277;109872;-71
2022/07/28 10:16:09;;;;;;;3.50;0.70;;;;;;;36.60;19.12;100748.89;104315;1277;138982;-72
2022/07/28 10:17:58;;;;;;;4.60;0.90;;;;;;;36.82;19.51;100745.01;104376;1277;108666;-71
2022/07/28 10:20:27;;;;;;;6.00;1.10;;;;;;;37.41;19.13;100741.23;104318;1278;95231;-71
2022/07/28 10:23:01;;;;;;;3.60;0.80;;;;;;;37.54;19.01;100744.05;104218;1277;138757;-72
2022/07/28 10:25:32;;;;;;;4.40;1.20;;;;;;;37.96;18.72;100745.63;104756;1277;109960;-71
2022/07/28 10:28:01;;;;;;;3.70;0.80;;;;;;;38.42;18.22;100748.83;104367;1277;142045;-70
2022/07/28 10:30:36;;;;;;;4.30;1.10;;;;;;;38.59;17.88;100752.61;104447;1276;109818;-72
2022/07/28 10:33:12;;;;;;;4.80;1.10;;;;;;;38.51;17.54;100748.61;104234;1277;139014;-71
2022/07/28 10:35:42;;;;;;;4.00;0.90;;;;;;;38.29;17.80;100737.94;104443;1277;98081;-70
2022/07/28 10:38:28;;;;;;;3.50;1.00;;;;;;;38.64;17.57;100738.51;104356;1275;110172;-71
2022/07/28 10:41:00;;;;;;;4.00;1.00;;;;;;;38.90;17.81;100740.21;104306;1278;99463;-72
2022/07/28 10:43:32;;;;;;;3.30;0.90;;;;;;;39.27;17.57;100740.92;104272;1278;109133;-71
2022/07/28 10:46:01;;;;;;;4.20;0.80;;;;;;;39.29;17.31;100738.16;104257;1277;138873;-70
2022/07/28 10:48:37;;;;;;;4.60;0.90;;;;;;;39.34;17.23;100736.52;104316;1277;96176;-72
2022/07/28 10:51:06;;;;;;;6.70;1.20;;;;;;;39.44;17.14;100729.71;104273;1277;138350;-72
2022/07/28 10:53:45;;;;;;;4.30;1.10;;;;;;;39.50;17.17;100737.23;104322;1277;98883;-71
2022/07/28 10:56:22;;;;;;;4.90;0.90;;;;;;;39.50;17.01;100736.86;104323;1277;109203;-72
2022/07/28 10:58:57;;;;;;;3.50;0.90;;;;;;;39.48;17.24;100734.20;104131;1277;138257;-72
2022/07/28 11:01:38;;;;;;;4.50;1.10;;;;;;;39.29;16.90;100740.45;104308;1275;95354;-71
2022/07/28 11:04:50;;;;;;;3.90;0.90;;;;;;;39.09;16.93;100742.33;104223;1276;138679;-71
2022/07/28 11:07:19;;;;;;;4.60;0.80;;;;;;;38.16;17.94;100739.66;104197;1277;99608;-71
2022/07/28 11:09:48;;;;;;;4.00;0.90;;;;;;;37.09;19.24;100740.45;104478;1277;138169;-71
2022/07/28 11:12:49;;;;;;;4.10;0.90;;;;;;;36.02;19.69;100734.88;104289;1278;96005;-70
2022/07/28 11:15:28;;;;;;;3.70;0.80;;;;;;;34.53;20.62;100740.49;104256;1277;138224;-71
2022/07/28 11:18:07;;;;;;;2.80;0.70;;;;;;;33.62;22.20;100730.96;104279;1278;109975;-70
2022/07/28 11:20:59;;;;;;;3.90;1.10;;;;;;;32.92;22.46;100737.70;104205;1276;139614;-71
2022/07/28 11:23:54;;;;;;;4.70;1.00;;;;;;;32.22;23.80;100736.40;104283;1277;109017;-70
2022/07/28 11:26:22;;;;;;;3.40;0.80;;;;;;;31.21;24.00;100735.77;104212;1277;96220;-72
2022/07/28 11:29:11;;;;;;;4.30;1.00;;;;;;;30.60;25.43;100740.52;104212;1276;139577;-70
2022/07/28 11:31:45;;;;;;;3.80;0.90;;;;;;;30.09;26.40;100739.06;104147;1277;109838;-71
2022/07/28 11:34:18;;;;;;;3.90;0.90;;;;;;;29.64;26.76;100732.83;104162;1278;138276;-71